PDT,Max TemperatureF,Mean TemperatureF,Min TemperatureF,Max Dew PointF,MeanDew PointF,Min DewpointF,Max Humidity, Mean Humidity, Min Humidity, Max Sea Level PressureIn, Mean Sea Level PressureIn, Min Sea Level PressureIn, Max VisibilityMiles, Mean VisibilityMiles, Min VisibilityMiles, Max Wind SpeedMPH, Mean Wind SpeedMPH, Max Gust SpeedMPH,PrecipitationIn, CloudCover, Events, WindDirDegrees
2012-10-1,99,79,60,47,43,35,60,34,13,30.01,29.93,29.86,10,10,10,6,1,,0.00,0,,171
2012-10-2,98,77,57,47,45,42,59,35,16,29.90,29.83,29.76,10,10,10,6,2,,0.00,0,,122
2012-10-3,95,78,61,51,45,40,54,35,16,29.89,29.84,29.79,10,10,10,14,3,18,0.00,0,,214
2012-10-4,82,69,57,52,49,46,70,51,36,30.05,29.99,29.89,10,10,10,14,9,21,0.00,0,,208
2012-10-5,77,67,57,52,51,49,75,58,39,30.12,30.07,30.03,10,10,10,14,7,23,0.00,0,,221
2012-10-6,75,62,48,51,48,44,86,65,37,30.06,30.01,29.94,10,10,10,10,2,17,0.00,0,,220
2012-10-7,78,63,48,51,48,45,89,62,36,30.01,29.95,29.89,10,10,10,13,3,20,0.00,0,,203
2012-10-8,75,62,48,49,46,43,83,57,34,30.01,29.98,29.96,10,10,10,15,7,21,0.00,0,,226
2012-10-9,75,62,48,51,46,43,86,60,33,30.04,29.98,29.92,10,10,10,7,2,,0.00,0,,259
2012-10-10,79,64,50,50,47,44,83,58,34,29.95,29.90,29.84,10,10,10,9,4,,0.00,0,,195
2012-10-11,66,60,53,51,48,47,80,71,56,29.96,29.88,29.84,10,10,10,20,8,34,0.00,0,,222
2012-10-12,61,54,46,50,48,44,90,75,63,30.23,30.11,29.97,10,10,10,6,2,,0.00,6,,188
2012-10-13,75,60,45,53,48,43,97,71,41,30.31,30.24,30.15,10,10,10,8,1,,0.00,0,,179
2012-10-14,79,62,46,57,52,44,100,75,45,30.22,30.15,30.06,10,9,0,5,1,,0.00,0,Fog,202
2012-10-15,84,66,50,56,53,49,96,63,38,30.09,30.02,29.94,10,10,10,7,1,,0.00,0,,169
2012-10-16,89,74,60,61,57,39,84,56,26,29.96,29.91,29.84,10,10,8,12,6,17,0.00,0,,267
2012-10-17,91,75,55,36,25,17,45,18,7,29.93,29.87,29.82,10,10,8,15,9,29,0.00,0,,352
2012-10-18,89,71,53,59,41,29,73,40,17,30.00,29.96,29.90,10,10,10,15,4,23,0.00,0,,197
2012-10-19,82,68,55,58,55,51,86,65,42,30.04,29.96,29.87,10,10,10,8,4,,0.00,0,,208
2012-10-20,79,66,52,55,50,46,86,63,39,29.88,29.82,29.75,10,10,10,12,4,16,0.00,0,,211
2012-10-21,70,59,48,48,40,30,80,55,23,29.90,29.84,29.79,10,10,9,15,4,21,0.01,1,Rain,204
2012-10-22,64,58,51,54,50,42,100,87,46,29.93,29.83,29.75,10,7,3,17,7,22,0.78,7,Rain,179
2012-10-23,63,56,50,49,44,39,96,71,43,30.06,30.01,29.94,10,10,10,10,5,,0.03,2,,200
2012-10-24,64,57,51,52,49,44,100,84,52,30.21,30.10,30.04,10,9,2,16,5,,0.06,6,Rain,175
2012-10-25,66,58,51,52,47,34,100,72,39,30.30,30.25,30.21,10,9,5,13,3,20,0.02,5,,344
2012-10-26,75,60,46,50,39,33,86,51,22,30.24,30.18,30.10,10,10,10,10,3,,0.00,0,,349
2012-10-27,82,65,48,53,49,45,93,63,30,30.09,30.02,29.95,10,10,10,8,2,,0.00,0,,329
2012-10-28,80,65,51,55,52,49,93,70,39,30.02,29.98,29.95,10,10,10,7,2,,0.00,0,,344
2012-10-29,79,62,45,56,52,45,100,77,40,30.12,30.06,30.02,10,10,9,5,1,,0.00,0,,151
2012-10-30,75,62,48,54,50,45,96,73,34,30.08,30.01,29.94,10,10,10,7,2,,0.00,0,,198
2012-10-31,63,59,55,57,54,51,100,81,67,30.01,29.98,29.94,10,10,7,16,7,24,0.11,3,,209